createdAt,value
2022-09-18T00:01:32.335Z,84.37
2022-09-18T00:04:03.075Z,84.19
2022-09-18T00:06:34.157Z,84.51
2022-09-18T00:09:03.425Z,84.26
2022-09-18T00:11:37.256Z,84.46
2022-09-18T00:14:06.957Z,84.69
2022-09-18T00:16:35.392Z,84.35
2022-09-18T00:19:03.433Z,83.93
2022-09-18T00:21:32.039Z,83.99
2022-09-18T00:24:01.220Z,83.84
2022-09-18T00:26:29.236Z,84.12
2022-09-18T00:28:58.467Z,84.17
2022-09-18T00:31:30.081Z,83.99
2022-09-18T00:34:00.720Z,83.91
2022-09-18T00:36:29.977Z,83.89
2022-09-18T00:38:59.434Z,84.12
2022-09-18T00:41:31.157Z,84.25
2022-09-18T00:44:37.699Z,84.02
2022-09-18T00:47:11.053Z,83.94
2022-09-18T00:49:42.975Z,84.27
2022-09-18T00:52:12.170Z,84.18
2022-09-18T00:54:42.257Z,84.25
2022-09-18T00:57:14.547Z,84.50
2022-09-18T00:59:45.851Z,84.53
2022-09-18T01:02:13.342Z,84.60
2022-09-18T01:04:41.122Z,84.66
2022-09-18T01:07:29.301Z,84.62
2022-09-18T01:10:27.280Z,84.73
2022-09-18T01:12:56.245Z,84.94
2022-09-18T01:16:00.609Z,85.21
2022-09-18T01:18:31.107Z,85.58
2022-09-18T01:21:16.474Z,85.87
2022-09-18T01:24:28.345Z,85.89
2022-09-18T01:27:09.440Z,85.98
2022-09-18T01:29:47.980Z,86.40
2022-09-18T01:32:21.709Z,86.90
2022-09-18T01:35:39.419Z,86.85
2022-09-18T01:38:09.181Z,86.67
2022-09-18T01:40:42.615Z,86.76
2022-09-18T01:43:16.048Z,86.79
2022-09-18T01:45:47.578Z,86.73
2022-09-18T01:48:25.894Z,86.79
2022-09-18T01:51:01.497Z,87.16
2022-09-18T01:53:34.860Z,87.04
2022-09-18T01:56:15.703Z,87.25
2022-09-18T01:58:45.098Z,87.05
2022-09-18T02:01:17.114Z,86.89
2022-09-18T02:03:57.772Z,86.85
2022-09-18T02:07:00.896Z,86.70
2022-09-18T02:09:29.889Z,86.53
2022-09-18T02:12:02.028Z,86.72
2022-09-18T02:14:38.062Z,86.70
2022-09-18T02:17:13.446Z,86.53
2022-09-18T02:20:02.429Z,86.47
2022-09-18T02:22:33.015Z,86.39
2022-09-18T02:25:04.711Z,86.37
2022-09-18T02:27:34.835Z,86.29
2022-09-18T02:30:06.056Z,86.18
2022-09-18T02:32:37.015Z,86.36
2022-09-18T02:35:08.055Z,86.52
2022-09-18T02:37:49.607Z,86.54
2022-09-18T02:40:38.583Z,86.43
2022-09-18T02:43:19.065Z,86.46
2022-09-18T02:45:49.796Z,86.28
2022-09-18T02:48:48.021Z,86.12
2022-09-18T02:51:29.094Z,86.19
2022-09-18T02:54:05.659Z,86.21
2022-09-18T02:56:57.197Z,86.21
2022-09-18T02:59:36.204Z,86.41
2022-09-18T03:02:04.662Z,86.28
2022-09-18T03:04:33.140Z,86.57
2022-09-18T03:07:01.008Z,86.44
2022-09-18T03:09:30.116Z,86.39
2022-09-18T03:11:57.956Z,86.54
2022-09-18T03:14:26.077Z,86.61
2022-09-18T03:16:54.001Z,86.64
2022-09-18T03:19:21.468Z,86.63
2022-09-18T03:21:51.194Z,86.56
2022-09-18T03:24:20.756Z,86.53
2022-09-18T03:26:48.558Z,86.38
2022-09-18T03:29:16.032Z,86.23
2022-09-18T03:31:43.914Z,86.29
2022-09-18T03:34:11.921Z,86.19
2022-09-18T03:36:39.490Z,86.34
2022-09-18T03:39:07.504Z,86.18
2022-09-18T03:41:35.147Z,86.54
2022-09-18T03:44:02.781Z,86.62
2022-09-18T03:46:30.688Z,86.48
2022-09-18T03:48:58.451Z,86.53
2022-09-18T03:51:26.511Z,86.48
2022-09-18T03:53:54.211Z,86.18
2022-09-18T03:56:21.843Z,85.95
2022-09-18T03:58:49.455Z,85.94
2022-09-18T04:01:19.852Z,85.83
2022-09-18T04:03:50.175Z,85.83
2022-09-18T04:06:18.872Z,85.77
2022-09-18T04:08:48.003Z,85.81
2022-09-18T04:11:17.008Z,85.82
2022-09-18T04:13:44.439Z,85.84
2022-09-18T04:16:12.800Z,85.72
2022-09-18T04:18:40.568Z,85.56
2022-09-18T04:21:08.752Z,85.57
2022-09-18T04:23:36.223Z,85.56
2022-09-18T04:26:09.107Z,85.24
2022-09-18T04:28:38.327Z,85.03
2022-09-18T04:31:06.456Z,85.03
2022-09-18T04:33:33.955Z,84.83
2022-09-18T04:36:06.019Z,84.57
2022-09-18T04:38:35.163Z,84.70
2022-09-18T04:41:02.604Z,84.50
2022-09-18T04:43:30.123Z,84.67
2022-09-18T04:45:59.064Z,84.76
2022-09-18T04:48:26.474Z,84.46
2022-09-18T04:50:54.192Z,84.22
2022-09-18T04:53:22.604Z,84.11
2022-09-18T04:55:50.075Z,84.23
2022-09-18T04:58:19.984Z,84.31
2022-09-18T05:00:50.739Z,84.39
2022-09-18T05:03:19.511Z,84.25
2022-09-18T05:05:49.792Z,84.29
2022-09-18T05:08:17.820Z,84.52
2022-09-18T05:10:45.339Z,84.88
2022-09-18T05:13:13.186Z,84.70
2022-09-18T05:15:41.817Z,84.73
2022-09-18T05:18:12.049Z,84.81
2022-09-18T05:20:39.921Z,84.87
2022-09-18T05:23:08.361Z,84.68
2022-09-18T05:25:36.560Z,84.76
2022-09-18T05:28:04.196Z,84.50
2022-09-18T05:30:32.693Z,84.83
2022-09-18T05:33:09.930Z,84.79
2022-09-18T05:35:39.879Z,84.45
2022-09-18T05:38:07.728Z,84.49
2022-09-18T05:40:37.724Z,84.45
2022-09-18T05:43:07.327Z,84.73
2022-09-18T05:45:35.103Z,84.88
2022-09-18T05:48:05.849Z,84.70
2022-09-18T05:50:37.394Z,84.63
2022-09-18T05:53:15.931Z,84.89
2022-09-18T05:55:44.176Z,84.84
2022-09-18T05:58:19.266Z,84.99
2022-09-18T06:00:47.423Z,84.50
2022-09-18T06:03:16.952Z,84.08
2022-09-18T06:05:52.056Z,84.01
2022-09-18T06:08:20.872Z,84.19
2022-09-18T06:10:48.551Z,83.83
2022-09-18T06:13:19.115Z,82.70
2022-09-18T06:15:49.543Z,82.39
2022-09-18T06:18:17.713Z,81.98
2022-09-18T06:20:56.366Z,81.00
2022-09-18T06:23:28.741Z,79.54
2022-09-18T06:26:01.919Z,78.03
2022-09-18T06:28:34.242Z,76.66
2022-09-18T06:31:03.201Z,76.32
2022-09-18T06:33:36.226Z,75.40
2022-09-18T06:36:08.338Z,75.25
2022-09-18T06:38:37.822Z,74.71
2022-09-18T06:41:05.593Z,72.83
2022-09-18T06:43:33.814Z,72.79
2022-09-18T06:46:02.261Z,72.14
2022-09-18T06:48:31.875Z,73.02
2022-09-18T06:50:59.794Z,71.37
2022-09-18T06:53:28.808Z,70.53
2022-09-18T06:56:00.361Z,70.00
2022-09-18T06:58:28.091Z,69.63
2022-09-18T07:01:00.925Z,68.19
2022-09-18T07:03:29.305Z,68.58
2022-09-18T07:05:58.643Z,68.87
2022-09-18T07:08:26.431Z,68.64
2022-09-18T07:10:54.662Z,67.53
2022-09-18T07:13:23.188Z,66.19
2022-09-18T07:15:50.747Z,65.19
2022-09-18T07:18:18.487Z,65.47
2022-09-18T07:20:45.906Z,64.98
2022-09-18T07:23:14.777Z,65.37
2022-09-18T07:25:43.305Z,64.32
2022-09-18T07:28:11.443Z,63.54
2022-09-18T07:30:40.733Z,63.58
2022-09-18T07:33:10.323Z,62.32
2022-09-18T07:35:41.218Z,61.11
2022-09-18T07:38:10.153Z,60.15
2022-09-18T07:40:40.273Z,59.66
2022-09-18T07:43:10.060Z,59.27
2022-09-18T07:45:38.017Z,60.01
2022-09-18T07:48:07.330Z,58.08
2022-09-18T07:50:37.092Z,57.88
2022-09-18T07:53:05.913Z,57.41
2022-09-18T07:55:37.076Z,56.82
2022-09-18T07:58:07.242Z,56.40
2022-09-18T08:00:39.222Z,56.75
2022-09-18T08:03:11.841Z,55.80
2022-09-18T08:05:42.064Z,56.62
2022-09-18T08:08:13.171Z,58.15
2022-09-18T08:10:45.209Z,56.80
2022-09-18T08:13:14.437Z,56.11
2022-09-18T08:15:43.394Z,54.33
2022-09-18T08:18:14.592Z,54.20
2022-09-18T08:20:44.063Z,52.83
2022-09-18T08:23:12.677Z,53.05
2022-09-18T08:25:41.965Z,52.84
2022-09-18T08:28:10.209Z,52.58
2022-09-18T08:30:38.319Z,51.83
2022-09-18T08:33:08.205Z,52.07
2022-09-18T08:35:36.551Z,51.83
2022-09-18T08:38:05.124Z,51.00
2022-09-18T08:40:42.471Z,50.00
2022-09-18T08:43:13.600Z,49.90
2022-09-18T08:45:56.405Z,50.02
2022-09-18T08:48:32.438Z,48.93
2022-09-18T08:51:04.941Z,48.75
2022-09-18T08:53:43.155Z,48.03
2022-09-18T08:56:21.538Z,46.93
2022-09-18T08:58:59.010Z,47.04
2022-09-18T09:02:03.529Z,46.59
2022-09-18T09:04:32.212Z,46.27
2022-09-18T09:07:22.343Z,45.57
2022-09-18T09:09:56.115Z,45.99
2022-09-18T09:13:05.032Z,46.56
2022-09-18T09:15:47.532Z,46.43
2022-09-18T09:18:18.294Z,46.59
2022-09-18T09:20:53.463Z,44.89
2022-09-18T09:23:58.375Z,46.38
2022-09-18T09:26:34.666Z,47.69
2022-09-18T09:29:15.568Z,45.95
2022-09-18T09:31:53.791Z,45.08
2022-09-18T09:34:24.179Z,44.86
2022-09-18T09:36:56.790Z,44.84
2022-09-18T09:39:29.469Z,45.36
2022-09-18T09:42:03.625Z,44.37
2022-09-18T09:44:38.329Z,43.97
2022-09-18T09:47:38.324Z,43.45
2022-09-18T09:50:08.908Z,42.38
2022-09-18T09:52:42.524Z,40.42
2022-09-18T09:55:13.081Z,39.92
2022-09-18T09:57:43.916Z,38.04
2022-09-18T10:00:19.846Z,37.80
2022-09-18T10:03:15.858Z,37.98
2022-09-18T10:05:53.902Z,38.50
2022-09-18T10:08:34.437Z,40.34
2022-09-18T10:11:05.800Z,37.01
2022-09-18T10:13:33.470Z,38.89
2022-09-18T10:16:20.722Z,38.63
2022-09-18T10:18:50.587Z,37.39
2022-09-18T10:21:21.552Z,37.37
2022-09-18T10:24:19.128Z,38.47
2022-09-18T10:27:11.536Z,37.83
2022-09-18T10:29:40.206Z,38.53
2022-09-18T10:32:11.683Z,38.19
2022-09-18T10:34:50.296Z,38.72
2022-09-18T10:37:30.066Z,38.84
2022-09-18T10:40:01.478Z,39.59
2022-09-18T10:42:31.989Z,39.55
2022-09-18T10:45:20.547Z,40.44
2022-09-18T10:47:48.660Z,38.22
2022-09-18T10:50:19.286Z,39.69
2022-09-18T10:52:54.035Z,39.52
2022-09-18T10:55:27.831Z,40.02
2022-09-18T10:57:58.114Z,40.49
2022-09-18T11:00:29.448Z,38.55
2022-09-18T11:03:01.020Z,39.62
2022-09-18T11:05:35.679Z,38.78
2022-09-18T11:08:19.913Z,39.69
2022-09-18T11:10:50.752Z,39.14
2022-09-18T11:13:25.522Z,38.87
2022-09-18T11:16:03.185Z,36.02
2022-09-18T11:18:32.739Z,36.49
2022-09-18T11:21:05.010Z,36.39
2022-09-18T11:23:34.764Z,36.36
2022-09-18T11:26:27.363Z,36.72
2022-09-18T11:29:25.560Z,36.08
2022-09-18T11:32:05.296Z,36.10
2022-09-18T11:34:39.401Z,35.18
2022-09-18T11:37:11.968Z,36.17
2022-09-18T11:39:43.976Z,37.08
2022-09-18T11:42:16.545Z,35.69
2022-09-18T11:44:45.556Z,35.02
2022-09-18T11:47:18.608Z,35.24
2022-09-18T11:49:49.756Z,35.72
2022-09-18T11:52:23.803Z,35.41
2022-09-18T11:54:57.719Z,34.72
2022-09-18T11:57:48.784Z,34.56
2022-09-18T12:00:20.827Z,35.10
2022-09-18T12:03:24.590Z,34.94
2022-09-18T12:05:57.440Z,34.63
2022-09-18T12:08:47.932Z,35.22
2022-09-18T12:11:18.563Z,35.49
2022-09-18T12:14:23.420Z,34.92
2022-09-18T12:17:00.800Z,35.75
2022-09-18T12:19:51.076Z,35.22
2022-09-18T12:22:36.800Z,36.83
2022-09-18T12:25:15.557Z,37.39
2022-09-18T12:28:20.339Z,37.85
2022-09-18T12:30:48.033Z,38.64
2022-09-18T12:33:23.495Z,37.84
2022-09-18T12:36:38.865Z,37.18
2022-09-18T12:39:14.277Z,35.82
2022-09-18T12:42:19.759Z,34.81
2022-09-18T12:44:59.433Z,34.75
2022-09-18T12:47:50.519Z,35.53
2022-09-18T12:50:48.063Z,34.16
2022-09-18T12:53:35.178Z,33.41
2022-09-18T12:56:32.240Z,32.79
2022-09-18T12:59:39.176Z,34.36
2022-09-18T13:02:06.516Z,35.70
2022-09-18T13:05:12.483Z,34.91
2022-09-18T13:07:56.843Z,35.93
2022-09-18T13:10:32.869Z,36.08
2022-09-18T13:13:29.371Z,36.04
2022-09-18T13:16:03.603Z,36.21
2022-09-18T13:18:39.123Z,36.09
2022-09-18T13:21:18.103Z,36.53
2022-09-18T13:23:47.642Z,35.59
2022-09-18T13:26:15.858Z,34.95
2022-09-18T13:28:44.234Z,34.77
2022-09-18T13:31:14.964Z,34.81
2022-09-18T13:34:07.395Z,35.37
2022-09-18T13:36:37.818Z,35.94
2022-09-18T13:39:16.259Z,34.88
2022-09-18T13:41:53.184Z,36.66
2022-09-18T13:44:24.481Z,37.61
2022-09-18T13:47:14.167Z,38.37
2022-09-18T13:49:57.515Z,36.94
2022-09-18T13:52:29.503Z,37.09
2022-09-18T13:55:25.337Z,37.48
2022-09-18T13:58:30.811Z,38.35
2022-09-18T14:07:36.725Z,38.53
2022-09-18T14:10:20.740Z,38.30
2022-09-18T14:13:03.403Z,37.39
2022-09-18T14:15:31.816Z,36.99
2022-09-18T14:18:17.081Z,37.09
2022-09-18T14:20:52.396Z,38.70
2022-09-18T14:23:48.943Z,38.47
2022-09-18T14:26:39.715Z,35.69
2022-09-18T14:29:14.932Z,34.33
2022-09-18T14:31:52.168Z,34.41
2022-09-18T14:34:28.681Z,34.85
2022-09-18T14:37:02.081Z,34.30
2022-09-18T14:39:32.575Z,34.25
2022-09-18T14:42:11.615Z,33.23
2022-09-18T14:44:39.981Z,32.97
2022-09-18T14:47:20.984Z,33.74
2022-09-18T14:49:49.242Z,32.94
2022-09-18T14:52:32.243Z,33.14
2022-09-18T14:55:11.862Z,33.85
2022-09-18T14:57:56.797Z,32.75
2022-09-18T15:00:27.987Z,32.14
2022-09-18T15:02:58.992Z,31.89
2022-09-18T15:05:27.856Z,32.30
2022-09-18T15:08:05.700Z,32.25
2022-09-18T15:10:35.722Z,32.16
2022-09-18T15:13:07.037Z,32.52
2022-09-18T15:15:43.304Z,32.49
2022-09-18T15:18:23.955Z,32.92
2022-09-18T15:20:53.196Z,32.82
2022-09-18T15:23:36.429Z,32.81
2022-09-18T15:26:11.662Z,32.97
2022-09-18T15:28:43.170Z,33.70
2022-09-18T15:31:14.070Z,33.48
2022-09-18T15:33:55.687Z,33.48
2022-09-18T15:36:34.414Z,33.88
2022-09-18T15:39:04.428Z,33.47
2022-09-18T15:41:45.711Z,34.13
2022-09-18T15:44:55.054Z,34.03
2022-09-18T15:47:28.462Z,34.39
2022-09-18T15:49:57.110Z,34.27
2022-09-18T15:53:01.811Z,34.95
2022-09-18T15:56:04.163Z,36.52
2022-09-18T15:58:35.110Z,37.44
2022-09-18T16:01:05.248Z,37.11
2022-09-18T16:03:34.144Z,38.41
2022-09-18T16:06:04.975Z,38.51
2022-09-18T16:08:37.588Z,39.31
2022-09-18T16:11:06.614Z,38.59
2022-09-18T16:13:36.991Z,40.33
2022-09-18T16:16:13.528Z,41.80
2022-09-18T16:19:08.352Z,42.26
2022-09-18T16:21:43.902Z,42.27
2022-09-18T16:24:28.466Z,42.14
2022-09-18T16:27:05.126Z,40.85
2022-09-18T16:29:34.252Z,41.25
2022-09-18T16:32:01.936Z,45.77
2022-09-18T16:34:29.623Z,48.05
2022-09-18T16:36:57.524Z,45.88
2022-09-18T16:39:26.670Z,46.27
2022-09-18T16:41:54.544Z,45.06
2022-09-18T16:44:24.962Z,47.58
2022-09-18T16:46:55.766Z,48.86
2022-09-18T16:49:28.006Z,49.36
2022-09-18T16:51:55.915Z,49.93
2022-09-18T16:54:24.400Z,50.25
2022-09-18T16:56:58.425Z,50.96
2022-09-18T16:59:30.085Z,49.91
2022-09-18T17:02:04.172Z,49.63
2022-09-18T17:04:33.249Z,50.48
2022-09-18T17:07:01.015Z,52.87
2022-09-18T17:09:28.490Z,54.25
2022-09-18T17:11:56.229Z,51.37
2022-09-18T17:14:24.711Z,51.35
2022-09-18T17:16:52.429Z,55.03
2022-09-18T17:19:20.263Z,53.63
2022-09-18T17:21:48.966Z,55.69
2022-09-18T17:24:17.534Z,55.53
2022-09-18T17:26:45.257Z,53.14
2022-09-18T17:29:12.650Z,53.57
2022-09-18T17:31:40.114Z,52.89
2022-09-18T17:34:08.118Z,54.99
2022-09-18T17:36:38.498Z,54.46
2022-09-18T17:39:06.274Z,53.85
2022-09-18T17:41:34.355Z,56.07
2022-09-18T17:44:02.020Z,58.59
2022-09-18T17:46:29.470Z,56.79
2022-09-18T17:48:58.851Z,56.58
2022-09-18T17:51:28.961Z,55.50
2022-09-18T17:53:59.528Z,58.22
2022-09-18T17:56:30.032Z,59.06
2022-09-18T17:59:00.235Z,58.33
2022-09-18T18:01:29.264Z,57.28
2022-09-18T18:03:57.405Z,59.12
2022-09-18T18:06:25.999Z,60.84
2022-09-18T18:08:53.894Z,60.38
2022-09-18T18:11:23.515Z,59.46
2022-09-18T18:13:52.821Z,58.08
2022-09-18T18:16:23.652Z,59.15
2022-09-18T18:18:54.645Z,62.00
2022-09-18T18:21:22.884Z,61.43
2022-09-18T18:23:58.672Z,61.83
2022-09-18T18:26:28.007Z,63.50
2022-09-18T18:28:56.034Z,65.12
2022-09-18T18:31:25.612Z,65.28
2022-09-18T18:33:55.028Z,64.85
2022-09-18T18:36:30.779Z,65.58
2022-09-18T18:39:01.462Z,65.98
2022-09-18T18:41:30.546Z,65.13
2022-09-18T18:44:01.986Z,64.85
2022-09-18T18:46:35.890Z,66.66
2022-09-18T18:49:11.712Z,66.69
2022-09-18T18:51:47.326Z,65.92
2022-09-18T18:54:17.696Z,67.58
2022-09-18T18:56:46.348Z,67.27
2022-09-18T18:59:17.004Z,66.92
2022-09-18T19:01:44.944Z,66.75
2022-09-18T19:04:16.811Z,66.22
2022-09-18T19:06:45.291Z,66.65
2022-09-18T19:09:20.118Z,66.76
2022-09-18T19:11:50.088Z,68.61
2022-09-18T19:14:25.365Z,67.76
2022-09-18T19:16:54.632Z,68.64
2022-09-18T19:19:24.553Z,69.04
2022-09-18T19:21:52.987Z,69.67
2022-09-18T19:24:20.490Z,69.55
2022-09-18T19:26:48.602Z,69.97
2022-09-18T19:29:17.855Z,69.30
2022-09-18T19:31:46.366Z,68.57
2022-09-18T19:34:19.527Z,69.48
2022-09-18T19:36:50.064Z,70.02
2022-09-18T19:39:20.982Z,70.02
2022-09-18T19:42:08.024Z,69.25
2022-09-18T19:44:50.015Z,69.31
2022-09-18T19:47:27.986Z,69.56
2022-09-18T19:49:57.935Z,70.45
2022-09-18T19:52:28.676Z,70.89
2022-09-18T19:54:58.103Z,69.69
2022-09-18T19:57:27.496Z,69.78
2022-09-18T19:59:57.091Z,68.99
2022-09-18T20:02:25.536Z,68.60
2022-09-18T20:04:53.325Z,69.32
2022-09-18T20:07:20.747Z,68.95
2022-09-18T20:09:48.343Z,70.53
2022-09-18T20:12:16.063Z,70.39
2022-09-18T20:14:43.576Z,70.28
2022-09-18T20:17:11.614Z,71.31
2022-09-18T20:19:39.375Z,71.01
2022-09-18T20:22:06.840Z,70.34
2022-09-18T20:24:34.346Z,71.81
2022-09-18T20:27:02.143Z,72.70
2022-09-18T20:29:30.482Z,73.60
2022-09-18T20:31:58.268Z,72.89
2022-09-18T20:34:26.250Z,72.46
2022-09-18T20:36:54.931Z,73.12
2022-09-18T20:39:22.740Z,73.57
2022-09-18T20:41:51.258Z,73.23
2022-09-18T20:44:19.363Z,72.77
2022-09-18T20:46:46.862Z,71.12
2022-09-18T20:49:17.486Z,70.01
2022-09-18T20:51:46.098Z,70.02
2022-09-18T20:54:15.167Z,71.64
2022-09-18T20:56:44.731Z,72.59
2022-09-18T20:59:17.456Z,72.86
2022-09-18T21:01:46.882Z,73.37
2022-09-18T21:04:19.777Z,73.45
2022-09-18T21:06:56.335Z,73.90
2022-09-18T21:09:27.411Z,73.03
2022-09-18T21:11:56.922Z,73.52
2022-09-18T21:14:25.577Z,71.54
2022-09-18T21:16:53.359Z,71.24
2022-09-18T21:19:21.089Z,69.36
2022-09-18T21:21:48.812Z,68.07
2022-09-18T21:24:17.530Z,68.62
2022-09-18T21:26:47.990Z,71.17
2022-09-18T21:29:18.071Z,68.74
2022-09-18T21:31:51.384Z,67.91
2022-09-18T21:34:24.322Z,68.10
2022-09-18T21:36:54.441Z,68.19
2022-09-18T21:39:22.464Z,70.03
2022-09-18T21:41:51.961Z,71.31
2022-09-18T21:44:24.910Z,70.77
2022-09-18T21:47:03.004Z,71.06
2022-09-18T21:49:31.957Z,71.19
2022-09-18T21:52:02.262Z,72.51
2022-09-18T21:54:31.933Z,73.38
2022-09-18T21:57:00.442Z,72.80
2022-09-18T21:59:30.642Z,73.08
2022-09-18T22:01:58.933Z,73.68
2022-09-18T22:04:29.747Z,74.16
2022-09-18T22:06:59.062Z,74.14
2022-09-18T22:09:29.308Z,74.21
2022-09-18T22:11:57.598Z,75.32
2022-09-18T22:14:32.101Z,74.97
2022-09-18T22:17:02.056Z,75.86
2022-09-18T22:19:29.930Z,75.66
2022-09-18T22:21:57.343Z,75.09
2022-09-18T22:24:26.462Z,75.19
2022-09-18T22:26:59.492Z,75.49
2022-09-18T22:29:34.354Z,75.56
2022-09-18T22:32:02.085Z,76.21
2022-09-18T22:34:31.893Z,76.27
2022-09-18T22:37:00.144Z,76.33
2022-09-18T22:39:28.685Z,76.20
2022-09-18T22:41:56.963Z,75.12
2022-09-18T22:44:24.503Z,74.66
2022-09-18T22:46:53.252Z,74.97
2022-09-18T22:49:22.314Z,74.49
2022-09-18T22:51:50.653Z,74.89
2022-09-18T22:54:23.658Z,76.27
2022-09-18T22:56:52.274Z,76.43
2022-09-18T22:59:22.160Z,76.19
2022-09-18T23:01:56.467Z,77.84
2022-09-18T23:04:29.843Z,77.08
2022-09-18T23:06:59.308Z,77.38
2022-09-18T23:09:27.874Z,77.00
2022-09-18T23:11:56.001Z,77.43
2022-09-18T23:14:28.374Z,77.18
2022-09-18T23:16:57.435Z,77.84
2022-09-18T23:19:28.138Z,78.18
2022-09-18T23:21:56.671Z,79.78
2022-09-18T23:24:24.883Z,78.66
2022-09-18T23:26:53.931Z,79.78
2022-09-18T23:29:23.533Z,79.09
2022-09-18T23:31:53.148Z,78.72
2022-09-18T23:34:23.597Z,77.76
2022-09-18T23:36:54.269Z,76.95
2022-09-18T23:39:28.725Z,77.67
2022-09-18T23:41:58.886Z,79.11
2022-09-18T23:44:28.901Z,79.41
2022-09-18T23:46:56.820Z,78.45
2022-09-18T23:49:24.306Z,79.75
2022-09-18T23:51:54.108Z,79.87
2022-09-18T23:54:27.884Z,80.15
2022-09-18T23:56:55.623Z,79.34
2022-09-18T23:59:25.071Z,78.13
